Time;durP1;ratioP1;P1;durP2;ratioP2;P2;SDS_P1;SDS_P2;PMS_P1;PMS_P2;Temp;Humidity;BMP_temperature;BMP_pressure;BME280_temperature;BME280_humidity;BME280_pressure;Samples;Min_cycle;Max_cycle;Signal;HPM_P1;HPM_P2
2021/12/23 00:01:45;;;;;;;8.18;4.18;;;16.00;36.80;;;;;;5080958;28;45204;-74
2021/12/23 00:04:14;;;;;;;7.35;4.22;;;16.00;37.00;;;;;;5078530;28;46546;-74
2021/12/23 00:06:43;;;;;;;5.88;4.10;;;16.00;37.10;;;;;;5077280;28;45568;-75
2021/12/23 00:09:10;;;;;;;5.40;3.88;;;16.00;37.30;;;;;;5080647;28;45318;-75
2021/12/23 00:11:37;;;;;;;5.95;3.88;;;16.00;37.20;;;;;;5080686;28;46665;-75
2021/12/23 00:14:08;;;;;;;5.60;4.10;;;16.00;37.00;;;;;;5079103;28;45977;-74
2021/12/23 00:16:45;;;;;;;5.75;4.00;;;16.00;36.90;;;;;;5076440;28;45663;-74
2021/12/23 00:19:33;;;;;;;5.70;3.95;;;16.00;36.80;;;;;;5079585;28;45518;-74
2021/12/23 00:24:45;;;;;;;6.60;4.18;;;16.00;36.80;;;;;;5081264;27;45411;-75
2021/12/23 00:27:12;;;;;;;5.78;3.95;;;16.00;36.80;;;;;;5076507;28;45313;-75
2021/12/23 00:29:41;;;;;;;5.72;4.07;;;16.00;37.00;;;;;;5081093;28;45142;-75
2021/12/23 00:32:09;;;;;;;4.75;3.78;;;16.00;37.20;;;;;;5076209;28;45701;-74
2021/12/23 00:34:36;;;;;;;5.72;4.00;;;16.00;37.30;;;;;;5079883;28;48752;-75
2021/12/23 00:37:06;;;;;;;5.35;3.72;;;16.00;37.20;;;;;;5077336;28;45604;-75
2021/12/23 00:39:33;;;;;;;6.22;4.20;;;16.00;37.10;;;;;;5077111;28;45268;-75
2021/12/23 00:42:06;;;;;;;5.65;3.80;;;16.00;36.90;;;;;;5078516;28;45408;-75
2021/12/23 00:44:33;;;;;;;7.03;4.18;;;16.00;36.80;;;;;;5074717;28;47691;-75
2021/12/23 00:47:01;;;;;;;7.05;4.47;;;16.00;36.60;;;;;;5075471;28;45415;-75
2021/12/23 00:49:28;;;;;;;6.28;4.25;;;16.00;36.60;;;;;;5079383;28;45386;-75
2021/12/23 00:51:56;;;;;;;7.38;4.55;;;16.00;36.70;;;;;;5076041;27;45288;-75
2021/12/23 00:54:23;;;;;;;5.45;3.60;;;16.00;37.00;;;;;;5076973;28;47020;-75
2021/12/23 00:56:51;;;;;;;5.38;3.90;;;16.00;37.00;;;;;;5078742;28;45299;-75
2021/12/23 00:59:18;;;;;;;5.78;3.95;;;16.00;37.60;;;;;;5078378;28;45312;-75
2021/12/23 01:01:46;;;;;;;4.97;3.95;;;16.00;37.70;;;;;;5075575;28;45418;-75
2021/12/23 01:04:15;;;;;;;6.30;4.07;;;16.00;37.40;;;;;;5082910;28;46719;-75
2021/12/23 01:06:42;;;;;;;6.32;4.55;;;16.00;37.30;;;;;;5078069;28;45187;-74
2021/12/23 01:09:08;;;;;;;5.70;4.20;;;16.00;36.80;;;;;;5078852;28;45599;-75
2021/12/23 01:11:35;;;;;;;5.40;4.18;;;16.00;36.90;;;;;;5078641;28;45327;-75
2021/12/23 01:14:25;;;;;;;6.35;4.53;;;16.00;36.80;;;;;;5076823;27;45311;-75
2021/12/23 01:17:23;;;;;;;6.40;4.32;;;16.00;36.60;;;;;;5076007;28;45572;-75
2021/12/23 01:19:49;;;;;;;6.20;4.40;;;16.00;36.60;;;;;;5073147;28;45276;-75
2021/12/23 01:22:15;;;;;;;5.18;4.00;;;16.00;36.70;;;;;;5076530;28;45506;-75
2021/12/23 01:24:42;;;;;;;6.53;4.43;;;16.00;37.00;;;;;;5075119;28;47392;-75
2021/12/23 01:27:09;;;;;;;6.25;4.20;;;16.00;37.00;;;;;;5080180;28;45302;-75
2021/12/23 01:29:36;;;;;;;8.48;4.68;;;16.00;37.40;;;;;;5077456;28;45290;-75
2021/12/23 01:32:05;;;;;;;7.28;4.75;;;16.00;36.60;;;;;;5076277;28;45574;-75
2021/12/23 01:34:33;;;;;;;5.85;4.35;;;16.00;36.60;;;;;;5074794;27;46559;-75
2021/12/23 01:37:02;;;;;;;6.65;4.60;;;16.00;36.40;;;;;;5071249;28;45176;-75
2021/12/23 01:39:29;;;;;;;5.60;4.38;;;16.00;37.80;;;;;;5077531;28;45326;-75
2021/12/23 01:41:56;;;;;;;6.10;4.13;;;16.00;36.40;;;;;;5078695;28;45331;-75
2021/12/23 01:44:23;;;;;;;5.88;4.38;;;16.00;36.70;;;;;;5080788;28;46603;-75
2021/12/23 01:46:50;;;;;;;6.70;4.50;;;16.00;37.00;;;;;;5078404;28;45307;-75
2021/12/23 01:49:17;;;;;;;5.82;4.35;;;16.00;37.00;;;;;;5076093;28;45255;-75
2021/12/23 01:51:44;;;;;;;6.35;4.20;;;16.00;37.00;;;;;;5085992;28;45257;-75
2021/12/23 01:54:12;;;;;;;6.38;4.38;;;16.00;37.30;;;;;;5082227;28;45479;-75
2021/12/23 01:56:39;;;;;;;6.78;4.80;;;16.00;37.20;;;;;;5081549;28;45571;-75
2021/12/23 01:59:06;;;;;;;6.45;4.45;;;16.00;36.90;;;;;;5077119;28;45157;-75
2021/12/23 02:01:32;;;;;;;5.63;4.60;;;16.00;36.70;;;;;;5076738;28;46173;-75
2021/12/23 02:03:59;;;;;;;6.75;4.78;;;16.00;36.70;;;;;;5074836;28;45493;-75
2021/12/23 02:06:26;;;;;;;6.05;4.43;;;16.00;36.50;;;;;;5082494;28;45634;-75
2021/12/23 02:08:53;;;;;;;7.30;4.70;;;16.00;36.50;;;;;;5073939;28;45236;-75
2021/12/23 02:11:21;;;;;;;6.53;4.53;;;16.00;36.50;;;;;;5079160;28;45117;-75
2021/12/23 02:13:48;;;;;;;5.80;4.25;;;16.00;37.10;;;;;;5087345;28;45314;-75
2021/12/23 02:16:15;;;;;;;5.55;4.47;;;16.00;36.60;;;;;;5082854;28;45270;-74
2021/12/23 02:18:42;;;;;;;5.47;3.95;;;16.00;37.00;;;;;;5086603;28;45275;-75
2021/12/23 02:21:10;;;;;;;4.55;3.95;;;16.00;37.00;;;;;;5081442;28;45356;-75
2021/12/23 02:23:38;;;;;;;6.28;4.22;;;16.00;36.90;;;;;;5089796;27;45487;-75
2021/12/23 02:26:05;;;;;;;5.20;4.07;;;16.00;37.10;;;;;;5080303;28;45527;-75
2021/12/23 02:28:32;;;;;;;5.50;4.13;;;16.00;37.00;;;;;;5088960;28;45371;-75
2021/12/23 02:30:59;;;;;;;7.25;4.80;;;16.00;36.60;;;;;;5088436;28;45482;-75
2021/12/23 02:33:28;;;;;;;6.32;4.47;;;16.00;36.60;;;;;;5075297;28;47695;-75
2021/12/23 02:35:57;;;;;;;6.22;4.75;;;16.00;36.40;;;;;;5070700;28;45308;-75
2021/12/23 02:38:25;;;;;;;6.32;4.75;;;16.00;36.40;;;;;;5089352;28;45158;-75
2021/12/23 02:40:53;;;;;;;7.28;4.55;;;15.90;36.60;;;;;;5081107;28;45380;-75
2021/12/23 02:43:22;;;;;;;7.03;4.57;;;16.00;37.00;;;;;;5088556;28;46007;-75
2021/12/23 02:45:51;;;;;;;5.68;4.32;;;16.00;37.00;;;;;;5089253;28;45358;-75
2021/12/23 02:48:20;;;;;;;6.88;4.85;;;16.00;37.00;;;;;;5088433;28;45219;-75
2021/12/23 02:50:49;;;;;;;6.13;4.07;;;16.00;36.70;;;;;;5080075;28;46735;-75
2021/12/23 02:53:17;;;;;;;5.85;4.05;;;16.00;36.90;;;;;;5083776;28;46679;-75
2021/12/23 02:55:46;;;;;;;5.88;4.60;;;16.00;36.80;;;;;;5075503;28;45330;-75
2021/12/23 02:58:13;;;;;;;7.38;4.80;;;16.00;36.70;;;;;;5075356;28;45347;-75
2021/12/23 03:00:42;;;;;;;5.90;4.63;;;16.00;36.70;;;;;;5071984;27;45355;-75
2021/12/23 03:03:09;;;;;;;6.85;4.72;;;16.00;36.60;;;;;;5077073;28;47929;-75
2021/12/23 03:05:36;;;;;;;5.35;3.95;;;16.00;36.60;;;;;;5086365;28;45192;-75
2021/12/23 03:08:03;;;;;;;6.40;4.50;;;16.00;37.00;;;;;;5082290;28;45459;-75
2021/12/23 03:10:30;;;;;;;6.43;4.60;;;16.00;37.70;;;;;;5079498;28;45187;-75
2021/12/23 03:12:58;;;;;;;5.10;3.88;;;16.00;37.60;;;;;;5088343;28;45295;-75
2021/12/23 03:15:25;;;;;;;7.43;4.47;;;16.00;38.60;;;;;;5088915;28;45305;-75
2021/12/23 03:17:52;;;;;;;6.53;4.57;;;16.00;37.40;;;;;;5079869;28;45142;-75
2021/12/23 03:20:19;;;;;;;8.15;4.90;;;16.00;37.20;;;;;;5081577;28;45490;-75
2021/12/23 03:22:46;;;;;;;6.88;4.57;;;16.00;36.80;;;;;;5075981;27;47319;-75
2021/12/23 03:25:13;;;;;;;7.25;5.13;;;16.00;36.80;;;;;;5074634;28;45193;-75
2021/12/23 03:27:39;;;;;;;6.60;4.88;;;16.00;36.70;;;;;;5080546;28;45216;-75
2021/12/23 03:30:09;;;;;;;6.53;5.18;;;16.00;36.70;;;;;;5078795;28;45484;-75
2021/12/23 03:32:36;;;;;;;6.20;4.88;;;16.00;36.60;;;;;;5085742;28;47353;-75
2021/12/23 03:35:02;;;;;;;6.10;4.38;;;16.00;36.60;;;;;;5084191;28;45303;-75
2021/12/23 03:37:29;;;;;;;6.68;4.97;;;16.00;36.80;;;;;;5083356;28;45306;-75
2021/12/23 03:39:56;;;;;;;8.35;4.70;;;16.00;37.30;;;;;;5085787;28;45201;-75
2021/12/23 03:42:23;;;;;;;5.85;4.20;;;16.00;37.30;;;;;;5080773;28;45541;-75
2021/12/23 03:44:51;;;;;;;6.38;4.32;;;16.00;37.10;;;;;;5079464;28;45370;-75
2021/12/23 03:47:19;;;;;;;7.78;5.00;;;16.00;37.60;;;;;;5075556;28;45157;-75
2021/12/23 03:49:46;;;;;;;6.88;4.63;;;16.00;37.20;;;;;;5080757;27;45176;-75
2021/12/23 03:52:12;;;;;;;6.43;4.57;;;16.00;36.80;;;;;;5094181;27;45472;-75
2021/12/23 03:54:40;;;;;;;6.30;4.72;;;16.00;36.70;;;;;;5082309;27;45336;-75
2021/12/23 03:57:07;;;;;;;5.97;4.60;;;16.00;36.70;;;;;;5083158;27;45517;-75
2021/12/23 03:59:33;;;;;;;7.93;5.43;;;16.00;36.80;;;;;;5071986;28;46316;-75
2021/12/23 04:02:01;;;;;;;7.30;5.10;;;16.00;36.60;;;;;;5082727;28;46468;-75
2021/12/23 04:04:29;;;;;;;6.65;5.00;;;16.00;37.00;;;;;;5074760;28;45244;-75
2021/12/23 04:06:55;;;;;;;5.20;4.05;;;16.00;36.80;;;;;;5078307;28;45374;-75
2021/12/23 04:09:22;;;;;;;6.60;4.55;;;16.00;37.10;;;;;;5084636;28;45452;-75
2021/12/23 04:11:49;;;;;;;7.38;4.55;;;16.00;37.00;;;;;;5077038;28;48858;-75
2021/12/23 04:14:16;;;;;;;6.80;4.57;;;16.00;37.00;;;;;;5085250;28;45398;-75
2021/12/23 04:16:43;;;;;;;7.53;4.40;;;16.00;36.90;;;;;;5075922;28;45339;-75
2021/12/23 04:19:11;;;;;;;5.65;4.43;;;16.00;36.80;;;;;;5088933;28;45134;-75
2021/12/23 04:21:41;;;;;;;8.20;5.50;;;16.00;36.80;;;;;;5078369;28;46378;-75
2021/12/23 04:24:08;;;;;;;7.60;5.13;;;16.00;36.80;;;;;;5081944;28;45225;-75
2021/12/23 04:26:36;;;;;;;7.90;5.15;;;16.00;36.80;;;;;;5082893;28;45409;-75
2021/12/23 04:29:03;;;;;;;5.60;4.32;;;16.00;36.80;;;;;;5075071;28;45235;-75
2021/12/23 04:31:29;;;;;;;7.22;5.03;;;16.00;36.80;;;;;;5072814;28;45313;-75
2021/12/23 04:33:56;;;;;;;7.22;4.88;;;16.00;36.90;;;;;;5078249;27;45354;-75
2021/12/23 04:36:26;;;;;;;8.13;4.65;;;16.00;37.20;;;;;;5088489;28;45244;-75
2021/12/23 04:38:55;;;;;;;6.55;4.68;;;16.00;36.90;;;;;;5086814;28;45379;-75
2021/12/23 04:41:22;;;;;;;6.68;5.05;;;16.00;37.00;;;;;;5077384;27;48632;-75
2021/12/23 04:43:49;;;;;;;7.00;4.82;;;16.00;37.00;;;;;;5076240;27;45363;-75
2021/12/23 04:46:16;;;;;;;7.05;4.97;;;16.00;37.00;;;;;;5075932;28;45291;-75
2021/12/23 04:48:45;;;;;;;7.03;5.07;;;16.00;36.80;;;;;;5070146;28;45154;-75
2021/12/23 04:51:12;;;;;;;7.05;5.22;;;16.00;36.90;;;;;;5079677;28;45394;-75
2021/12/23 04:53:39;;;;;;;6.72;5.25;;;16.00;36.80;;;;;;5085871;28;45233;-75
2021/12/23 04:56:07;;;;;;;7.00;5.40;;;16.00;36.90;;;;;;5077822;28;45230;-75
2021/12/23 04:58:34;;;;;;;7.78;5.20;;;16.00;36.80;;;;;;5085848;28;45368;-75
2021/12/23 05:01:03;;;;;;;5.97;4.70;;;16.00;36.80;;;;;;5080418;28;45342;-74
2021/12/23 05:03:30;;;;;;;6.65;4.45;;;16.00;37.00;;;;;;5084577;28;45336;-75
2021/12/23 05:05:56;;;;;;;6.93;4.90;;;16.00;37.00;;;;;;5082862;28;45300;-75
2021/12/23 05:08:23;;;;;;;7.80;5.07;;;16.00;37.00;;;;;;5075162;28;45387;-75
2021/12/23 05:10:50;;;;;;;6.78;4.70;;;16.00;37.00;;;;;;5079295;28;46359;-75
2021/12/23 05:13:18;;;;;;;6.28;4.57;;;16.00;37.20;;;;;;5086647;28;45176;-75
2021/12/23 05:15:47;;;;;;;7.10;4.93;;;16.00;37.10;;;;;;5294902;22;45280;-74
2021/12/23 05:18:14;;;;;;;7.38;4.53;;;16.00;36.90;;;;;;5055191;28;45285;-74
2021/12/23 05:20:41;;;;;;;6.60;4.70;;;16.00;37.70;;;;;;5045820;28;46425;-74
2021/12/23 05:23:07;;;;;;;5.90;4.50;;;16.00;37.40;;;;;;5068924;28;45263;-74
2021/12/23 05:25:35;;;;;;;7.13;5.03;;;16.00;37.10;;;;;;5062780;28;45310;-74
2021/12/23 05:28:02;;;;;;;8.00;5.13;;;16.00;37.00;;;;;;5064491;28;45485;-74
2021/12/23 05:30:31;;;;;;;8.98;5.28;;;16.00;37.00;;;;;;5057924;28;47486;-74
2021/12/23 05:32:58;;;;;;;7.45;4.65;;;16.00;37.00;;;;;;5063412;28;46201;-74
2021/12/23 05:35:26;;;;;;;6.18;4.30;;;16.00;37.30;;;;;;5059576;28;45265;-74
2021/12/23 05:37:54;;;;;;;7.47;5.07;;;16.00;37.40;;;;;;5047542;28;45330;-74
2021/12/23 05:40:23;;;;;;;5.57;3.90;;;16.00;37.00;;;;;;5058052;28;46598;-74
2021/12/23 05:42:51;;;;;;;5.65;4.32;;;16.00;37.00;;;;;;5057385;28;45236;-74
2021/12/23 05:45:18;;;;;;;6.43;4.95;;;16.10;37.00;;;;;;5060435;28;45305;-74
2021/12/23 05:47:48;;;;;;;6.10;4.68;;;16.10;36.70;;;;;;5065375;28;45113;-74
2021/12/23 05:50:16;;;;;;;6.40;4.53;;;16.10;37.00;;;;;;5059310;28;45776;-74
2021/12/23 05:52:43;;;;;;;7.80;4.78;;;16.00;37.00;;;;;;5077358;28;45580;-74
2021/12/23 05:55:12;;;;;;;7.45;5.25;;;16.00;36.70;;;;;;5075381;28;45426;-75
2021/12/23 05:57:39;;;;;;;6.75;4.88;;;16.00;36.80;;;;;;5063524;28;46272;-74
2021/12/23 06:00:11;;;;;;;7.07;4.90;;;16.00;36.90;;;;;;5067792;28;47121;-75
2021/12/23 06:02:38;;;;;;;6.75;4.90;;;16.00;37.00;;;;;;5061085;28;45363;-75
2021/12/23 06:05:08;;;;;;;6.20;4.43;;;16.00;37.10;;;;;;5058455;28;45355;-74
2021/12/23 06:07:35;;;;;;;7.70;4.78;;;16.00;37.30;;;;;;5067805;28;45289;-74
2021/12/23 06:10:01;;;;;;;6.95;4.80;;;16.00;37.60;;;;;;5060549;28;45703;-75
2021/12/23 06:12:28;;;;;;;6.93;5.00;;;16.00;37.20;;;;;;5064173;28;45288;-75
2021/12/23 06:14:55;;;;;;;7.05;4.95;;;16.00;37.20;;;;;;5058632;28;45256;-75
2021/12/23 06:17:22;;;;;;;6.97;5.18;;;16.00;37.30;;;;;;5056747;28;45706;-75
2021/12/23 06:19:49;;;;;;;10.50;5.22;;;16.00;37.10;;;;;;5054226;28;47179;-74
2021/12/23 06:22:19;;;;;;;7.22;4.78;;;16.00;37.10;;;;;;5058219;28;45844;-74
2021/12/23 06:24:48;;;;;;;7.65;4.75;;;16.00;37.10;;;;;;5066860;28;45329;-75
2021/12/23 06:27:16;;;;;;;6.70;4.90;;;16.00;37.10;;;;;;5059387;28;45497;-74
2021/12/23 06:29:43;;;;;;;6.95;4.95;;;16.00;37.10;;;;;;5057850;28;46535;-74
2021/12/23 06:32:10;;;;;;;6.35;4.70;;;16.00;37.10;;;;;;5056542;28;45221;-75
2021/12/23 06:34:37;;;;;;;8.20;5.35;;;16.00;37.10;;;;;;5046559;28;45386;-75
2021/12/23 06:37:05;;;;;;;7.38;4.47;;;15.90;37.10;;;;;;5057628;28;45272;-75
2021/12/23 06:39:33;;;;;;;7.32;5.20;;;16.00;37.30;;;;;;5046326;28;47145;-74
2021/12/23 06:42:00;;;;;;;6.97;5.00;;;16.00;37.40;;;;;;5057604;28;45346;-75
2021/12/23 06:44:28;;;;;;;7.93;5.50;;;16.00;37.10;;;;;;5046972;28;45356;-75
2021/12/23 06:46:55;;;;;;;7.47;4.93;;;16.00;37.30;;;;;;5065815;28;45347;-74
2021/12/23 06:49:22;;;;;;;7.25;5.43;;;16.00;37.30;;;;;;5067454;28;47849;-74
2021/12/23 06:51:49;;;;;;;6.32;4.72;;;16.00;37.40;;;;;;5078462;28;45147;-75
2021/12/23 06:54:17;;;;;;;7.65;5.20;;;16.00;37.30;;;;;;5058279;28;45572;-75
2021/12/23 06:56:46;;;;;;;7.03;5.32;;;16.00;37.10;;;;;;5051978;28;45316;-75
2021/12/23 06:59:15;;;;;;;6.97;4.65;;;16.00;37.20;;;;;;5071314;28;47128;-75
2021/12/23 07:01:42;;;;;;;8.85;4.85;;;16.00;37.20;;;;;;5065622;28;45258;-75
2021/12/23 07:04:14;;;;;;;7.60;5.07;;;16.00;37.20;;;;;;5068969;28;45553;-74
2021/12/23 07:06:47;;;;;;;7.47;4.90;;;16.00;37.10;;;;;;5071021;28;45293;-75
2021/12/23 07:09:16;;;;;;;7.47;5.38;;;16.00;37.40;;;;;;5066634;28;45402;-74
2021/12/23 07:11:43;;;;;;;7.18;5.18;;;16.00;37.20;;;;;;5088337;28;45210;-74
2021/12/23 07:14:11;;;;;;;7.15;5.53;;;16.00;37.10;;;;;;5066503;28;45164;-75
2021/12/23 07:16:40;;;;;;;7.05;5.13;;;16.00;37.40;;;;;;5060636;28;45419;-75
2021/12/23 07:19:07;;;;;;;8.25;5.38;;;18.10;39.20;;;;;;5058438;28;48048;-75
2021/12/23 07:21:34;;;;;;;7.60;5.72;;;16.00;37.00;;;;;;5065169;28;45264;-75
2021/12/23 07:24:01;;;;;;;7.82;5.18;;;16.00;37.20;;;;;;5051818;28;45561;-75
2021/12/23 07:26:28;;;;;;;7.90;5.38;;;16.00;38.40;;;;;;5061419;28;46447;-75
2021/12/23 07:28:55;;;;;;;7.65;5.40;;;16.00;38.10;;;;;;5067285;28;47146;-75
2021/12/23 07:31:23;;;;;;;7.70;5.60;;;16.00;37.70;;;;;;5055311;28;45287;-75
2021/12/23 07:33:50;;;;;;;8.35;5.13;;;16.00;37.50;;;;;;5063946;28;45200;-74
2021/12/23 07:36:18;;;;;;;6.13;4.65;;;16.00;37.50;;;;;;5058910;28;45239;-75
2021/12/23 07:38:46;;;;;;;7.50;5.07;;;16.00;37.60;;;;;;5062079;28;47361;-75
2021/12/23 07:41:12;;;;;;;7.20;5.32;;;16.00;37.40;;;;;;5059021;28;45181;-74
2021/12/23 07:43:56;;;;;;;7.07;5.40;;;16.00;37.40;;;;;;5054267;28;45332;-74
2021/12/23 07:46:26;;;;;;;8.13;5.47;;;16.00;37.30;;;;;;5068024;28;45544;-74
2021/12/23 07:48:53;;;;;;;8.40;5.45;;;16.00;37.30;;;;;;5062166;28;45295;-74
2021/12/23 07:51:20;;;;;;;6.60;5.10;;;16.00;37.60;;;;;;5075778;28;45141;-74
2021/12/23 07:53:47;;;;;;;8.38;5.78;;;16.00;37.50;;;;;;5069152;28;45346;-74
2021/12/23 07:56:14;;;;;;;6.75;5.60;;;16.00;37.40;;;;;;5068854;28;45403;-74
2021/12/23 07:58:41;;;;;;;8.02;5.28;;;15.90;37.40;;;;;;5050969;28;46329;-74
2021/12/23 08:01:08;;;;;;;7.70;5.72;;;16.00;37.50;;;;;;5055284;28;45338;-74
2021/12/23 08:03:36;;;;;;;8.20;5.40;;;16.00;37.40;;;;;;5058068;28;45196;-74
2021/12/23 08:06:03;;;;;;;8.55;5.43;;;16.00;37.60;;;;;;5067734;28;45430;-74
2021/12/23 08:08:31;;;;;;;7.78;5.32;;;16.00;37.50;;;;;;5061595;28;46422;-74
2021/12/23 08:10:58;;;;;;;7.15;5.18;;;16.00;37.50;;;;;;5055339;28;46257;-74
2021/12/23 08:13:25;;;;;;;8.15;5.75;;;16.00;37.60;;;;;;5063487;28;45634;-75
2021/12/23 08:15:52;;;;;;;6.25;4.35;;;16.00;37.50;;;;;;5052112;28;45323;-75
2021/12/23 08:18:19;;;;;;;7.65;5.93;;;16.00;37.90;;;;;;5066964;28;46164;-74
2021/12/23 08:20:47;;;;;;;6.25;5.13;;;16.00;37.50;;;;;;5052729;28;45656;-75
2021/12/23 08:23:14;;;;;;;8.32;5.50;;;16.00;37.40;;;;;;5053357;28;45138;-74
2021/12/23 08:25:41;;;;;;;7.40;5.03;;;16.00;37.40;;;;;;5060239;28;45344;-74
2021/12/23 08:28:09;;;;;;;6.82;4.30;;;16.00;37.70;;;;;;5054888;28;45450;-74
2021/12/23 08:30:39;;;;;;;7.05;5.10;;;16.00;39.20;;;;;;5047405;28;45273;-74
2021/12/23 08:33:06;;;;;;;7.25;5.13;;;16.00;37.70;;;;;;5073251;28;45224;-75
2021/12/23 08:35:33;;;;;;;9.52;5.68;;;16.00;37.80;;;;;;5068077;28;45441;-73
2021/12/23 08:38:02;;;;;;;8.05;5.60;;;16.00;37.80;;;;;;5056162;28;46555;-73
2021/12/23 08:40:30;;;;;;;8.18;5.63;;;16.00;39.00;;;;;;5057224;28;45210;-73
2021/12/23 08:42:59;;;;;;;7.50;5.25;;;16.00;37.80;;;;;;5057991;28;45298;-74
2021/12/23 08:45:27;;;;;;;9.02;5.85;;;15.90;37.80;;;;;;5064083;28;45347;-75
2021/12/23 08:47:56;;;;;;;8.70;5.90;;;15.90;37.80;;;;;;5072430;28;46562;-75
2021/12/23 08:50:24;;;;;;;9.65;6.25;;;15.90;37.70;;;;;;5055818;28;45244;-74
2021/12/23 08:52:52;;;;;;;9.38;5.75;;;15.90;37.70;;;;;;5067965;28;45137;-75
2021/12/23 08:55:21;;;;;;;8.00;5.68;;;16.00;37.80;;;;;;5057747;28;45110;-75
2021/12/23 08:57:48;;;;;;;7.75;5.60;;;16.00;37.80;;;;;;5064453;28;46205;-75
2021/12/23 09:00:18;;;;;;;7.75;5.70;;;16.00;37.80;;;;;;5070362;28;45237;-75
2021/12/23 09:02:46;;;;;;;8.88;5.75;;;16.00;37.80;;;;;;5056948;28;45311;-75
2021/12/23 09:05:13;;;;;;;9.13;5.80;;;16.00;37.90;;;;;;5062594;28;45235;-74
2021/12/23 09:07:40;;;;;;;7.95;5.40;;;16.00;37.80;;;;;;5047155;28;45253;-74
2021/12/23 09:10:08;;;;;;;6.88;5.30;;;16.00;37.90;;;;;;5053992;28;45291;-74
2021/12/23 09:12:36;;;;;;;7.45;5.53;;;16.00;37.80;;;;;;5056090;28;45228;-75
2021/12/23 09:15:04;;;;;;;8.32;5.55;;;16.00;37.80;;;;;;5060943;28;45315;-75
2021/12/23 09:17:31;;;;;;;7.88;5.68;;;16.00;37.90;;;;;;5053468;28;45469;-75
2021/12/23 09:19:58;;;;;;;7.18;5.22;;;16.00;37.90;;;;;;5066474;27;45675;-75
2021/12/23 09:22:25;;;;;;;7.75;5.22;;;16.00;39.00;;;;;;5047812;28;45204;-75
2021/12/23 09:24:56;;;;;;;8.77;5.65;;;16.00;39.70;;;;;;5051391;28;45474;-75
2021/12/23 09:27:26;;;;;;;7.88;5.00;;;16.00;40.10;;;;;;5065549;28;48243;-75
2021/12/23 09:32:52;;;;;;;8.68;5.32;;;16.10;39.70;;;;;;5058964;28;45341;-75
2021/12/23 09:35:21;;;;;;;6.57;4.75;;;16.10;39.20;;;;;;5062809;28;45398;-75
2021/12/23 09:37:48;;;;;;;7.43;4.70;;;16.10;39.10;;;;;;5067921;28;45643;-75
2021/12/23 09:40:16;;;;;;;6.20;4.50;;;16.10;39.70;;;;;;5072085;28;45210;-75
2021/12/23 09:42:46;;;;;;;6.18;4.28;;;16.10;39.90;;;;;;5055582;28;45237;-75
2021/12/23 09:45:17;;;;;;;6.75;4.90;;;16.10;40.20;;;;;;5055271;28;45205;-75
2021/12/23 09:47:46;;;;;;;7.45;5.30;;;16.10;40.00;;;;;;5058712;28;48339;-75
2021/12/23 09:50:15;;;;;;;7.85;5.45;;;16.10;39.20;;;;;;5051859;28;45293;-74
2021/12/23 09:52:45;;;;;;;7.80;5.55;;;16.10;39.20;;;;;;5045515;28;45396;-74
2021/12/23 09:55:15;;;;;;;8.75;5.45;;;16.10;38.80;;;;;;5054728;28;45165;-74
2021/12/23 09:57:45;;;;;;;8.07;5.50;;;16.10;38.60;;;;;;5046418;28;45414;-73
2021/12/23 10:00:16;;;;;;;8.88;5.45;;;16.20;38.50;;;;;;5052449;28;45192;-75
2021/12/23 10:02:44;;;;;;;6.25;4.63;;;16.20;38.40;;;;;;5052392;28;45283;-75
2021/12/23 10:05:13;;;;;;;9.45;4.10;;;16.30;39.10;;;;;;5063014;28;45410;-74
2021/12/23 10:07:41;;;;;;;5.07;3.47;;;16.40;41.60;;;;;;5063815;28;45507;-75
2021/12/23 10:10:14;;;;;;;5.78;3.70;;;16.40;42.70;;;;;;5050903;28;45482;-75
2021/12/23 10:32:56;;;;;;;5.38;3.75;;;16.60;41.70;;;;;;5033198;28;45300;-75
2021/12/23 10:38:14;;;;;;;6.35;4.07;;;16.60;42.20;;;;;;5056569;28;45342;-76
2021/12/23 10:40:44;;;;;;;7.28;4.18;;;16.60;42.60;;;;;;5071022;28;47374;-75
2021/12/23 10:43:22;;;;;;;5.97;4.18;;;16.60;42.50;;;;;;5058297;28;46182;-75
2021/12/23 10:45:55;;;;;;;5.13;3.60;;;16.60;42.20;;;;;;5070591;28;45403;-75
2021/12/23 10:48:25;;;;;;;7.80;4.28;;;16.60;42.70;;;;;;5070514;28;45543;-75
2021/12/23 10:50:58;;;;;;;5.20;3.55;;;16.60;42.10;;;;;;5049641;28;47292;-75
2021/12/23 10:53:43;;;;;;;5.40;3.70;;;16.70;42.80;;;;;;5061325;28;45308;-75
2021/12/23 10:59:06;;;;;;;6.13;3.90;;;16.70;41.10;;;;;;5075373;28;45278;-75
2021/12/23 11:01:36;;;;;;;6.13;3.88;;;16.60;42.70;;;;;;5056304;28;47298;-75
2021/12/23 11:04:07;;;;;;;5.25;3.53;;;16.60;42.80;;;;;;5052893;28;45252;-75
2021/12/23 11:06:39;;;;;;;8.07;3.63;;;16.60;42.70;;;;;;5068809;28;45271;-75
2021/12/23 11:09:32;;;;;;;4.97;3.67;;;16.70;42.70;;;;;;5053453;28;45684;-75
2021/12/23 11:39:53;;;;;;;5.82;3.97;;;16.70;43.20;;;;;;5049287;28;45360;-75
2021/12/23 11:42:30;;;;;;;4.95;3.50;;;16.70;43.00;;;;;;5068778;28;45163;-75
2021/12/23 11:44:58;;;;;;;5.13;3.63;;;16.70;42.70;;;;;;5057514;28;45539;-75
2021/12/23 11:47:26;;;;;;;6.03;3.47;;;16.70;42.50;;;;;;5065010;28;45333;-75
2021/12/23 11:49:54;;;;;;;5.68;3.75;;;16.70;42.90;;;;;;5064005;28;45248;-75
2021/12/23 11:52:23;;;;;;;6.50;3.72;;;16.70;42.70;;;;;;5048574;28;45214;-75
2021/12/23 11:54:50;;;;;;;5.93;4.05;;;16.70;42.90;;;;;;5048051;28;47350;-75
2021/12/23 11:57:22;;;;;;;5.25;4.00;;;16.70;43.20;;;;;;5048745;28;45283;-75
2021/12/23 12:00:03;;;;;;;6.13;4.47;;;16.70;42.50;;;;;;5053335;28;45212;-75
2021/12/23 12:02:32;;;;;;;5.72;3.63;;;16.70;43.10;;;;;;5050791;28;45491;-75
2021/12/23 12:05:01;;;;;;;5.53;3.83;;;16.60;43.00;;;;;;5069987;28;47029;-74
2021/12/23 12:07:29;;;;;;;6.32;3.88;;;16.70;43.20;;;;;;5067389;28;45310;-75
2021/12/23 12:09:59;;;;;;;5.82;4.10;;;16.70;43.10;;;;;;5067610;28;45247;-75
2021/12/23 12:12:26;;;;;;;5.53;3.47;;;16.70;42.80;;;;;;5055656;28;45348;-75
2021/12/23 12:14:55;;;;;;;5.32;3.60;;;16.70;43.30;;;;;;5051232;28;46894;-75
2021/12/23 12:17:39;;;;;;;4.93;3.53;;;16.70;43.40;;;;;;5078261;28;45271;-75
2021/12/23 12:20:15;;;;;;;5.78;3.65;;;16.70;43.00;;;;;;5065416;28;45188;-75
2021/12/23 12:23:11;;;;;;;5.38;3.78;;;16.70;42.70;;;;;;5054005;28;45500;-75
2021/12/23 12:25:57;;;;;;;6.63;3.80;;;16.70;42.50;;;;;;5050200;28;45732;-75
2021/12/23 12:28:36;;;;;;;5.72;3.60;;;16.70;42.10;;;;;;5055567;28;45887;-74
2021/12/23 12:31:06;;;;;;;4.88;3.25;;;16.60;43.30;;;;;;5063470;28;45335;-74
2021/12/23 12:33:42;;;;;;;5.57;3.40;;;16.60;43.70;;;;;;5064583;28;45387;-75
2021/12/23 12:36:12;;;;;;;6.18;3.63;;;16.60;43.60;;;;;;5060945;28;45252;-75
2021/12/23 12:38:42;;;;;;;6.10;3.85;;;16.60;43.50;;;;;;5055344;28;46012;-75
2021/12/23 12:41:12;;;;;;;4.22;3.50;;;16.60;43.70;;;;;;5052515;28;45387;-75
2021/12/23 12:43:57;;;;;;;5.82;3.50;;;16.60;44.80;;;;;;5066571;28;45549;-75
2021/12/23 12:46:57;;;;;;;4.63;3.30;;;16.60;43.80;;;;;;5068720;28;48216;-75
2021/12/23 12:49:28;;;;;;;4.80;3.42;;;16.60;43.80;;;;;;5060808;28;45167;-75
2021/12/23 12:52:07;;;;;;;6.25;3.80;;;16.60;43.70;;;;;;5069844;28;45577;-75
2021/12/23 12:54:42;;;;;;;6.13;3.70;;;16.60;43.80;;;;;;5060149;28;45287;-75
2021/12/23 12:57:10;;;;;;;5.75;3.63;;;16.60;43.50;;;;;;5065474;28;45379;-75
2021/12/23 12:59:39;;;;;;;4.82;3.40;;;16.70;43.70;;;;;;5063107;28;45281;-75
2021/12/23 13:02:28;;;;;;;6.55;3.83;;;16.60;43.40;;;;;;5056814;28;45370;-75
2021/12/23 13:05:02;;;;;;;5.93;3.70;;;16.60;43.80;;;;;;5057919;28;45257;-75
2021/12/23 13:07:34;;;;;;;5.97;3.90;;;16.60;43.50;;;;;;5060377;28;45575;-75
2021/12/23 13:10:09;;;;;;;6.72;3.20;;;16.60;43.60;;;;;;5056250;28;45402;-75
2021/12/23 13:12:46;;;;;;;5.28;3.72;;;16.60;43.90;;;;;;5052768;28;45853;-75
2021/12/23 13:15:17;;;;;;;5.50;3.53;;;16.60;44.00;;;;;;5057434;28;45161;-75
2021/12/23 13:17:52;;;;;;;5.70;4.07;;;16.60;43.60;;;;;;5067155;28;46308;-75
2021/12/23 13:20:32;;;;;;;6.68;4.60;;;16.60;43.10;;;;;;5049167;28;45374;-75
2021/12/23 13:23:01;;;;;;;9.07;4.40;;;16.50;42.30;;;;;;5052920;28;45366;-74
2021/12/23 13:25:30;;;;;;;8.25;4.72;;;16.50;43.40;;;;;;5049535;28;45334;-74
2021/12/23 13:27:59;;;;;;;8.93;4.68;;;16.40;42.50;;;;;;5052526;28;45650;-74
2021/12/23 13:30:26;;;;;;;8.57;4.72;;;16.40;42.60;;;;;;5051198;28;45264;-74
2021/12/23 13:33:01;;;;;;;9.13;5.55;;;16.40;42.60;;;;;;5057457;28;45594;-73
2021/12/23 13:35:29;;;;;;;8.77;5.25;;;16.40;41.60;;;;;;5049047;28;45586;-74
2021/12/23 13:37:56;;;;;;;8.40;5.28;;;16.40;42.00;;;;;;5050185;28;47917;-72
2021/12/23 13:40:29;;;;;;;9.10;6.07;;;16.40;41.80;;;;;;5048821;28;45252;-72
2021/12/23 13:42:56;;;;;;;9.70;6.05;;;16.40;41.20;;;;;;5059954;28;45365;-73
2021/12/23 13:45:23;;;;;;;8.85;5.90;;;16.40;41.20;;;;;;5050969;28;45411;-73
2021/12/23 13:47:53;;;;;;;9.55;6.68;;;16.40;41.30;;;;;;5055653;28;46175;-73
2021/12/23 13:50:21;;;;;;;10.77;5.80;;;16.30;41.10;;;;;;5052020;28;45393;-74
2021/12/23 13:52:50;;;;;;;9.88;6.18;;;16.40;41.40;;;;;;5057056;28;45209;-74
2021/12/23 13:55:19;;;;;;;9.57;6.10;;;16.40;41.40;;;;;;5053531;28;45597;-74
2021/12/23 13:57:51;;;;;;;8.98;5.53;;;16.40;41.40;;;;;;5050472;28;46744;-74